createdAt,value
2023-12-23T00:01:44.456Z,8.56
2023-12-23T00:04:12.142Z,8.49
2023-12-23T00:06:40.701Z,8.50
2023-12-23T00:09:08.337Z,8.40
2023-12-23T00:11:36.243Z,8.28
2023-12-23T00:14:03.991Z,8.20
2023-12-23T00:16:33.046Z,8.21
2023-12-23T00:19:00.999Z,8.18
2023-12-23T00:21:29.250Z,8.17
2023-12-23T00:23:56.961Z,8.08
2023-12-23T00:26:24.654Z,8.21
2023-12-23T00:28:52.314Z,8.16
2023-12-23T00:31:26.691Z,8.22
2023-12-23T00:33:58.235Z,8.11
2023-12-23T00:36:28.299Z,8.18
2023-12-23T00:38:56.016Z,8.13
2023-12-23T00:41:31.699Z,8.05
2023-12-23T00:43:59.378Z,7.98
2023-12-23T00:46:35.301Z,8.01
2023-12-23T00:49:04.459Z,8.03
2023-12-23T00:51:33.905Z,8.04
2023-12-23T00:54:05.373Z,8.16
2023-12-23T00:56:33.075Z,7.98
2023-12-23T00:59:03.794Z,7.90
2023-12-23T01:01:33.902Z,7.96
2023-12-23T01:04:06.244Z,7.88
2023-12-23T01:06:38.307Z,7.93
2023-12-23T01:09:16.669Z,7.90
2023-12-23T01:11:48.821Z,7.91
2023-12-23T01:14:16.901Z,7.83
2023-12-23T01:16:47.236Z,7.91
2023-12-23T01:19:16.412Z,7.98
2023-12-23T01:21:44.174Z,8.07
2023-12-23T01:24:11.860Z,8.10
2023-12-23T01:26:39.543Z,8.08
2023-12-23T01:29:07.162Z,8.00
2023-12-23T01:31:34.842Z,8.09
2023-12-23T01:34:02.613Z,8.10
2023-12-23T01:36:31.552Z,8.08
2023-12-23T01:39:00.227Z,8.04
2023-12-23T01:41:27.917Z,8.11
2023-12-23T01:43:55.605Z,8.21
2023-12-23T01:46:23.501Z,8.07
2023-12-23T01:48:51.487Z,8.11
2023-12-23T01:51:19.338Z,8.15
2023-12-23T01:53:52.547Z,8.11
2023-12-23T01:56:20.428Z,8.11
2023-12-23T01:58:48.812Z,8.13
2023-12-23T02:01:16.826Z,8.10
2023-12-23T02:03:45.088Z,8.14
2023-12-23T02:06:16.175Z,8.30
2023-12-23T02:08:44.055Z,8.28
2023-12-23T02:11:37.931Z,8.31
2023-12-23T02:14:12.088Z,8.36
2023-12-23T02:16:40.008Z,8.32
2023-12-23T02:19:07.644Z,8.24
2023-12-23T02:21:36.781Z,8.22
2023-12-23T02:24:16.132Z,8.27
2023-12-23T02:26:51.362Z,8.21
2023-12-23T02:29:22.796Z,8.19
2023-12-23T02:31:52.404Z,8.09
2023-12-23T02:34:20.438Z,8.10
2023-12-23T02:36:49.507Z,8.02
2023-12-23T02:39:17.253Z,7.95
2023-12-23T02:41:45.137Z,8.03
2023-12-23T02:44:15.259Z,7.93
2023-12-23T02:46:43.013Z,8.00
2023-12-23T02:49:10.753Z,7.94
2023-12-23T02:51:38.424Z,8.07
2023-12-23T02:54:07.547Z,8.07
2023-12-23T02:56:35.231Z,7.97
2023-12-23T02:59:02.934Z,7.94
2023-12-23T03:01:31.568Z,7.95
2023-12-23T03:03:59.346Z,7.99
2023-12-23T03:06:27.307Z,7.96
2023-12-23T03:08:55.273Z,7.99
2023-12-23T03:11:24.390Z,7.99
2023-12-23T03:13:53.202Z,7.97
2023-12-23T03:16:21.171Z,7.96
2023-12-23T03:18:49.048Z,7.95
2023-12-23T03:21:16.944Z,7.91
2023-12-23T03:23:44.678Z,7.98
2023-12-23T03:26:12.501Z,7.92
2023-12-23T03:28:41.628Z,7.95
2023-12-23T03:31:10.459Z,7.92
2023-12-23T03:33:38.280Z,8.02
2023-12-23T03:36:06.501Z,7.95
2023-12-23T03:38:34.268Z,7.93
2023-12-23T03:41:02.051Z,8.10
2023-12-23T03:43:29.801Z,8.16
2023-12-23T03:45:58.883Z,8.19
2023-12-23T03:48:28.073Z,8.19
2023-12-23T03:50:55.780Z,8.13
2023-12-23T03:53:23.810Z,8.17
2023-12-23T03:55:51.716Z,8.15
2023-12-23T03:58:19.710Z,8.25
2023-12-23T04:00:48.423Z,8.32
2023-12-23T04:03:17.650Z,8.24
2023-12-23T04:05:45.427Z,8.15
2023-12-23T04:08:13.421Z,8.19
2023-12-23T04:10:41.190Z,8.22
2023-12-23T04:13:09.410Z,8.25
2023-12-23T04:15:37.183Z,8.11
2023-12-23T04:18:05.440Z,8.04
2023-12-23T04:20:34.570Z,8.03
2023-12-23T04:23:02.267Z,8.01
2023-12-23T04:25:30.408Z,8.18
2023-12-23T04:27:58.079Z,8.12
2023-12-23T04:30:26.045Z,8.11
2023-12-23T04:32:54.010Z,8.09
2023-12-23T04:35:22.366Z,8.17
2023-12-23T04:37:51.457Z,8.29
2023-12-23T04:40:19.287Z,8.20
2023-12-23T04:42:47.148Z,8.18
2023-12-23T04:45:15.053Z,8.13
2023-12-23T04:47:42.799Z,8.20
2023-12-23T04:50:10.840Z,8.32
2023-12-23T04:52:38.560Z,8.29
2023-12-23T04:55:10.808Z,8.37
2023-12-23T04:57:39.000Z,8.45
2023-12-23T05:00:09.778Z,8.43
2023-12-23T05:02:37.465Z,8.48
2023-12-23T05:05:06.023Z,8.41
2023-12-23T05:07:34.755Z,8.46
2023-12-23T05:10:02.552Z,8.51
2023-12-23T05:12:31.737Z,8.47
2023-12-23T05:14:59.566Z,8.52
2023-12-23T05:17:27.431Z,8.58
2023-12-23T05:19:56.491Z,8.63
2023-12-23T05:22:24.224Z,8.72
2023-12-23T05:24:51.885Z,8.79
2023-12-23T05:27:19.675Z,8.73
2023-12-23T05:29:48.783Z,8.75
2023-12-23T05:32:16.534Z,8.79
2023-12-23T05:34:44.302Z,8.77
2023-12-23T05:37:12.017Z,8.80
2023-12-23T05:39:40.273Z,8.75
2023-12-23T05:42:07.984Z,8.74
2023-12-23T05:44:35.652Z,8.76
2023-12-23T05:47:05.056Z,8.84
2023-12-23T05:49:32.834Z,8.82
2023-12-23T05:52:00.479Z,8.80
2023-12-23T05:54:28.192Z,8.76
2023-12-23T05:56:55.889Z,8.69
2023-12-23T05:59:23.632Z,8.72
2023-12-23T06:01:51.289Z,8.63
2023-12-23T06:04:20.527Z,8.61
2023-12-23T06:06:48.158Z,8.64
2023-12-23T06:09:15.858Z,8.60
2023-12-23T06:11:43.628Z,8.59
2023-12-23T06:14:11.941Z,8.57
2023-12-23T06:16:40.982Z,8.58
2023-12-23T06:19:08.762Z,8.61
2023-12-23T06:21:38.712Z,8.64
2023-12-23T06:24:07.201Z,8.57
2023-12-23T06:26:34.890Z,8.49
2023-12-23T06:29:02.867Z,8.52
2023-12-23T06:31:30.522Z,8.44
2023-12-23T06:34:04.371Z,8.52
2023-12-23T06:36:32.569Z,8.45
2023-12-23T06:39:02.044Z,8.39
2023-12-23T06:41:29.749Z,8.44
2023-12-23T06:43:57.447Z,8.51
2023-12-23T06:46:25.334Z,8.57
2023-12-23T06:48:54.184Z,8.59
2023-12-23T06:51:21.935Z,8.62
2023-12-23T06:53:49.949Z,8.58
2023-12-23T06:56:19.793Z,8.68
2023-12-23T06:58:47.564Z,8.67
2023-12-23T07:01:15.272Z,8.67
2023-12-23T07:03:43.818Z,8.66
2023-12-23T07:06:13.530Z,8.76
2023-12-23T07:08:41.512Z,8.74
2023-12-23T07:11:11.343Z,8.74
2023-12-23T07:13:40.637Z,8.76
2023-12-23T07:16:11.041Z,8.84
2023-12-23T07:18:39.244Z,8.94
2023-12-23T07:21:07.033Z,8.97
2023-12-23T07:23:34.737Z,8.88
2023-12-23T07:26:03.662Z,8.91
2023-12-23T07:28:31.982Z,8.95
2023-12-23T07:31:01.152Z,9.03
2023-12-23T07:33:28.891Z,9.00
2023-12-23T07:35:56.724Z,8.99
2023-12-23T07:38:27.119Z,8.99
2023-12-23T07:40:55.575Z,8.92
2023-12-23T07:43:23.593Z,8.91
2023-12-23T07:45:51.286Z,8.92
2023-12-23T07:48:20.434Z,8.94
2023-12-23T07:50:48.352Z,9.03
2023-12-23T07:53:16.204Z,9.03
2023-12-23T07:55:45.116Z,8.93
2023-12-23T07:58:13.006Z,8.97
2023-12-23T08:00:40.645Z,9.05
2023-12-23T08:03:08.469Z,9.03
2023-12-23T08:05:40.102Z,9.05
2023-12-23T08:08:11.051Z,9.11
2023-12-23T08:10:40.803Z,9.07
2023-12-23T08:13:08.566Z,9.05
2023-12-23T08:15:36.432Z,8.95
2023-12-23T08:18:04.607Z,8.88
2023-12-23T08:20:39.882Z,8.87
2023-12-23T08:23:11.194Z,8.86
2023-12-23T08:25:39.129Z,8.81
2023-12-23T08:28:08.376Z,8.76
2023-12-23T08:30:36.126Z,8.76
2023-12-23T08:33:04.635Z,8.93
2023-12-23T08:35:33.072Z,8.92
2023-12-23T08:38:00.904Z,8.86
2023-12-23T08:40:31.494Z,8.91
2023-12-23T08:42:59.330Z,9.05
2023-12-23T08:45:27.341Z,9.13
2023-12-23T08:47:55.246Z,9.11
2023-12-23T08:50:23.785Z,9.06
2023-12-23T08:52:51.726Z,9.09
2023-12-23T08:55:19.681Z,9.07
2023-12-23T08:57:49.049Z,9.13
2023-12-23T09:00:17.542Z,9.12
2023-12-23T09:02:45.279Z,9.12
2023-12-23T09:05:13.706Z,9.14
2023-12-23T09:07:41.711Z,9.11
2023-12-23T09:10:10.341Z,9.09
2023-12-23T09:12:40.186Z,9.06
2023-12-23T09:15:10.213Z,9.01
2023-12-23T09:17:37.974Z,9.06
2023-12-23T09:20:06.844Z,8.98
2023-12-23T09:22:34.678Z,9.03
2023-12-23T09:25:02.405Z,9.02
2023-12-23T09:27:32.391Z,8.99
2023-12-23T09:30:01.074Z,9.01
2023-12-23T09:32:30.823Z,8.96
2023-12-23T09:35:02.258Z,8.97
2023-12-23T09:37:31.967Z,8.93
2023-12-23T09:40:00.385Z,8.93
2023-12-23T09:42:29.640Z,8.89
2023-12-23T09:44:57.521Z,8.92
2023-12-23T09:47:26.197Z,8.99
2023-12-23T09:49:55.823Z,9.01
2023-12-23T09:52:26.077Z,9.01
2023-12-23T09:54:55.769Z,8.94
2023-12-23T09:57:23.926Z,8.78
2023-12-23T09:59:55.759Z,8.72
2023-12-23T10:02:23.738Z,8.67
2023-12-23T10:04:51.962Z,8.70
2023-12-23T10:07:21.167Z,8.72
2023-12-23T10:09:51.010Z,8.76
2023-12-23T10:12:20.306Z,8.82
2023-12-23T10:14:49.883Z,8.94
2023-12-23T10:17:20.920Z,8.94
2023-12-23T10:19:49.773Z,8.95
2023-12-23T10:22:19.728Z,9.03
2023-12-23T10:24:48.816Z,9.07
2023-12-23T10:27:20.128Z,9.06
2023-12-23T10:29:53.942Z,9.07
2023-12-23T10:32:26.287Z,9.14
2023-12-23T10:35:01.000Z,9.25
2023-12-23T10:37:33.438Z,9.30
2023-12-23T10:40:23.774Z,9.32
2023-12-23T10:42:55.696Z,9.41
2023-12-23T10:45:26.635Z,9.37
2023-12-23T10:47:55.383Z,9.50
2023-12-23T10:50:25.611Z,9.50
2023-12-23T10:52:56.317Z,9.52
2023-12-23T10:55:40.154Z,9.51
2023-12-23T10:58:10.463Z,9.54
2023-12-23T11:00:39.046Z,9.49
2023-12-23T11:03:12.482Z,9.53
2023-12-23T11:05:44.094Z,9.62
2023-12-23T11:08:18.220Z,9.60
2023-12-23T11:11:06.409Z,9.64
2023-12-23T11:13:35.202Z,9.54
2023-12-23T11:16:03.564Z,9.50
2023-12-23T11:18:31.965Z,9.52
2023-12-23T11:21:00.063Z,9.57
2023-12-23T11:23:37.430Z,9.67
2023-12-23T11:26:44.437Z,9.66
2023-12-23T11:29:16.032Z,9.61
2023-12-23T11:31:43.208Z,9.59
2023-12-23T11:34:16.193Z,9.66
2023-12-23T11:36:45.970Z,9.62
2023-12-23T11:39:26.485Z,9.66
2023-12-23T11:41:57.660Z,9.58
2023-12-23T11:44:26.444Z,9.61
2023-12-23T11:46:55.912Z,9.66
2023-12-23T11:49:24.879Z,9.76
2023-12-23T11:51:53.392Z,9.74
2023-12-23T11:54:22.332Z,9.71
2023-12-23T11:56:53.112Z,9.73
2023-12-23T11:59:33.126Z,9.74
2023-12-23T12:02:03.044Z,9.80
2023-12-23T12:04:31.920Z,9.76
2023-12-23T12:09:47.387Z,9.86
2023-12-23T12:12:15.760Z,9.81
2023-12-23T12:14:45.717Z,9.82
2023-12-23T12:17:13.571Z,9.75
2023-12-23T12:19:43.503Z,9.76
2023-12-23T12:22:11.760Z,9.77
2023-12-23T12:24:40.298Z,9.75
2023-12-23T12:27:08.060Z,9.90
2023-12-23T12:29:36.070Z,9.92
2023-12-23T12:32:06.437Z,9.89
2023-12-23T12:34:34.116Z,10.06
2023-12-23T12:37:05.407Z,10.11
2023-12-23T12:39:33.407Z,10.17
2023-12-23T12:42:07.349Z,10.14
2023-12-23T12:44:35.330Z,10.18
2023-12-23T12:47:05.431Z,10.23
2023-12-23T12:49:33.370Z,10.31
2023-12-23T12:52:05.328Z,10.30
2023-12-23T12:54:33.481Z,10.32
2023-12-23T12:57:01.686Z,10.33
2023-12-23T13:03:13.405Z,10.28
2023-12-23T13:05:44.730Z,10.29
2023-12-23T13:08:12.565Z,10.34
2023-12-23T13:10:48.274Z,10.28
2023-12-23T13:13:18.291Z,10.31
2023-12-23T13:15:46.610Z,10.34
2023-12-23T13:18:15.913Z,10.37
2023-12-23T13:20:43.999Z,10.34
2023-12-23T13:23:12.746Z,10.29
2023-12-23T13:25:44.911Z,10.23
2023-12-23T13:28:17.662Z,10.28
2023-12-23T13:30:46.436Z,10.36
2023-12-23T13:33:15.570Z,10.32
2023-12-23T13:35:43.534Z,10.34
2023-12-23T13:38:11.282Z,10.34
2023-12-23T13:40:41.977Z,10.34
2023-12-23T13:43:09.646Z,10.36
2023-12-23T13:45:37.350Z,10.31
2023-12-23T13:48:05.464Z,10.30
2023-12-23T13:50:37.354Z,10.34
2023-12-23T13:53:08.644Z,10.27
2023-12-23T13:55:36.997Z,10.33
2023-12-23T13:58:12.057Z,10.26
2023-12-23T14:00:39.848Z,10.26
2023-12-23T14:03:07.646Z,10.22
2023-12-23T14:05:39.001Z,10.25
2023-12-23T14:08:08.836Z,10.31
2023-12-23T14:10:36.490Z,10.30
2023-12-23T14:13:04.221Z,10.31
2023-12-23T14:15:31.905Z,10.27
2023-12-23T14:17:59.727Z,10.24
2023-12-23T14:20:27.586Z,10.24
2023-12-23T14:22:56.703Z,10.31
2023-12-23T14:25:24.756Z,10.25
2023-12-23T14:27:54.009Z,10.22
2023-12-23T14:30:26.310Z,10.27
2023-12-23T14:32:54.586Z,10.35
2023-12-23T14:35:33.322Z,10.30
2023-12-23T14:38:02.510Z,10.29
2023-12-23T14:40:33.063Z,10.31
2023-12-23T14:43:00.977Z,10.32
2023-12-23T14:45:29.384Z,10.33
2023-12-23T14:47:57.181Z,10.29
2023-12-23T14:50:24.979Z,10.21
2023-12-23T14:52:53.018Z,10.16
2023-12-23T14:55:23.633Z,10.14
2023-12-23T14:57:51.408Z,10.20
2023-12-23T15:00:19.651Z,10.21
2023-12-23T15:02:47.926Z,10.29
2023-12-23T15:05:16.105Z,10.23
2023-12-23T15:07:43.868Z,10.21
2023-12-23T15:10:11.709Z,10.14
2023-12-23T15:12:40.886Z,10.13
2023-12-23T15:15:10.431Z,10.16
2023-12-23T15:17:38.278Z,10.11
2023-12-23T15:20:07.645Z,10.15
2023-12-23T15:22:35.327Z,10.09
2023-12-23T15:25:03.103Z,10.09
2023-12-23T15:27:32.696Z,10.02
2023-12-23T15:30:05.257Z,10.03
2023-12-23T15:32:33.304Z,10.00
2023-12-23T15:35:01.258Z,10.01
2023-12-23T15:37:29.191Z,9.93
2023-12-23T15:39:57.055Z,10.00
2023-12-23T15:42:25.811Z,9.96
2023-12-23T15:44:53.815Z,10.01
2023-12-23T15:47:22.989Z,9.96
2023-12-23T15:49:50.889Z,9.99
2023-12-23T15:52:18.929Z,9.93
2023-12-23T15:54:46.172Z,9.96
2023-12-23T15:57:13.828Z,10.04
2023-12-23T15:59:41.624Z,10.10
2023-12-23T16:02:09.488Z,10.13
2023-12-23T16:04:38.748Z,10.09
2023-12-23T16:07:06.540Z,10.11
2023-12-23T16:09:34.263Z,10.19
2023-12-23T16:12:01.076Z,10.24
2023-12-23T16:14:28.831Z,10.22
2023-12-23T16:16:56.629Z,10.22
2023-12-23T16:19:24.833Z,10.23
2023-12-23T16:21:54.030Z,10.22
2023-12-23T16:24:21.715Z,10.25
2023-12-23T16:26:52.958Z,10.24
2023-12-23T16:29:21.175Z,10.24
2023-12-23T16:31:48.814Z,10.28
2023-12-23T16:34:16.543Z,10.23
2023-12-23T16:36:44.699Z,10.19
2023-12-23T16:39:13.941Z,10.13
2023-12-23T16:41:41.527Z,10.13
2023-12-23T16:44:09.530Z,10.02
2023-12-23T16:46:37.221Z,9.99
2023-12-23T16:49:05.229Z,10.03
2023-12-23T16:51:33.063Z,10.01
2023-12-23T16:54:02.469Z,10.03
2023-12-23T16:56:31.717Z,10.07
2023-12-23T16:58:59.528Z,10.18
2023-12-23T17:01:27.265Z,10.17
2023-12-23T17:03:55.782Z,10.20
2023-12-23T17:06:23.517Z,10.21
2023-12-23T17:08:51.272Z,10.17
2023-12-23T17:11:20.825Z,10.25
2023-12-23T17:13:50.059Z,10.28
2023-12-23T17:16:18.151Z,10.23
2023-12-23T17:18:45.887Z,10.21
2023-12-23T17:21:14.729Z,10.15
2023-12-23T17:23:42.688Z,10.11
2023-12-23T17:26:10.488Z,10.18
2023-12-23T17:28:38.221Z,10.20
2023-12-23T17:31:07.294Z,10.07
2023-12-23T17:33:35.021Z,10.03
2023-12-23T17:36:05.312Z,9.98
2023-12-23T17:38:33.747Z,9.86
2023-12-23T17:41:01.636Z,9.78
2023-12-23T17:43:29.355Z,9.79
2023-12-23T17:45:56.998Z,9.74
2023-12-23T17:48:28.038Z,9.72
2023-12-23T17:50:56.205Z,9.67
2023-12-23T17:53:25.860Z,9.68
2023-12-23T17:55:53.618Z,9.69
2023-12-23T17:58:21.231Z,9.72
2023-12-23T18:00:49.028Z,9.68
2023-12-23T18:03:18.787Z,9.66
2023-12-23T18:05:48.189Z,9.61
2023-12-23T18:08:15.877Z,9.55
2023-12-23T18:10:43.611Z,9.57
2023-12-23T18:13:14.489Z,9.54
2023-12-23T18:15:42.102Z,9.43
2023-12-23T18:18:10.092Z,9.47
2023-12-23T18:20:38.118Z,9.46
2023-12-23T18:23:07.658Z,9.51
2023-12-23T18:25:35.407Z,9.48
2023-12-23T18:28:03.688Z,9.49
2023-12-23T18:30:31.384Z,9.35
2023-12-23T18:32:59.746Z,9.36
2023-12-23T18:35:27.735Z,9.34
2023-12-23T18:37:56.484Z,9.40
2023-12-23T18:40:25.563Z,9.37
2023-12-23T18:42:53.727Z,9.41
2023-12-23T18:45:21.592Z,9.47
2023-12-23T18:47:49.727Z,9.35
2023-12-23T18:50:17.462Z,9.36
2023-12-23T18:52:45.713Z,9.31
2023-12-23T18:55:13.957Z,9.34
2023-12-23T18:57:43.110Z,9.34
2023-12-23T19:00:11.911Z,9.31
2023-12-23T19:02:39.794Z,9.43
2023-12-23T19:05:09.493Z,9.37
2023-12-23T19:07:37.255Z,9.36
2023-12-23T19:10:05.184Z,9.34
2023-12-23T19:12:32.928Z,9.30
2023-12-23T19:15:02.097Z,9.18
2023-12-23T19:17:29.913Z,9.22
2023-12-23T19:19:57.609Z,9.23
2023-12-23T19:22:25.435Z,9.22
2023-12-23T19:24:53.115Z,9.25
2023-12-23T19:27:21.355Z,9.21
2023-12-23T19:29:51.929Z,9.24
2023-12-23T19:32:22.395Z,9.34
2023-12-23T19:34:50.233Z,9.44
2023-12-23T19:37:17.948Z,9.49
2023-12-23T19:39:55.741Z,9.42
2023-12-23T19:42:30.675Z,9.46
2023-12-23T19:44:58.400Z,9.52
2023-12-23T19:47:27.545Z,9.47
2023-12-23T19:49:56.174Z,9.48
2023-12-23T19:52:29.578Z,9.56
2023-12-23T19:54:58.022Z,9.49
2023-12-23T19:57:25.921Z,9.52
2023-12-23T19:59:54.025Z,9.53
2023-12-23T20:02:21.764Z,9.53
2023-12-23T20:04:51.118Z,9.58
2023-12-23T20:07:18.860Z,9.45
2023-12-23T20:09:46.864Z,9.41
2023-12-23T20:12:14.687Z,9.36
2023-12-23T20:14:42.967Z,9.40
2023-12-23T20:17:10.721Z,9.36
2023-12-23T20:19:38.650Z,9.33
2023-12-23T20:22:10.599Z,9.37
2023-12-23T20:24:39.569Z,9.36
2023-12-23T20:27:09.172Z,9.29
2023-12-23T20:29:37.083Z,9.34
2023-12-23T20:32:05.514Z,9.23
2023-12-23T20:34:34.072Z,9.19
2023-12-23T20:37:06.809Z,9.14
2023-12-23T20:39:35.874Z,9.04
2023-12-23T20:42:03.798Z,8.97
2023-12-23T20:44:32.834Z,8.94
2023-12-23T20:47:04.703Z,9.04
2023-12-23T20:49:42.229Z,9.01
2023-12-23T20:52:09.859Z,8.96
2023-12-23T20:54:45.761Z,9.02
2023-12-23T20:57:13.571Z,8.93
2023-12-23T20:59:42.575Z,8.99
2023-12-23T21:02:19.324Z,8.96
2023-12-23T21:04:47.145Z,8.98
2023-12-23T21:07:14.806Z,9.04
2023-12-23T21:09:46.037Z,9.04
2023-12-23T21:12:14.083Z,9.08
2023-12-23T21:14:47.616Z,9.03
2023-12-23T21:17:15.766Z,9.00
2023-12-23T21:19:45.709Z,9.04
2023-12-23T21:22:13.789Z,9.05
2023-12-23T21:24:43.262Z,9.03
2023-12-23T21:27:11.401Z,9.10
2023-12-23T21:29:39.276Z,9.06
2023-12-23T21:32:08.137Z,8.94
2023-12-23T21:34:35.858Z,8.94
2023-12-23T21:37:03.636Z,8.77
2023-12-23T21:39:31.316Z,8.72
2023-12-23T21:42:05.870Z,8.70
2023-12-23T21:44:34.343Z,8.63
2023-12-23T21:47:02.194Z,8.81
2023-12-23T21:49:30.016Z,8.73
2023-12-23T21:52:02.017Z,8.79
2023-12-23T21:54:33.291Z,8.92
2023-12-23T21:57:05.351Z,8.99
2023-12-23T21:59:32.136Z,8.98
2023-12-23T22:01:59.946Z,8.99
2023-12-23T22:04:27.851Z,8.88
2023-12-23T22:06:54.976Z,8.83
2023-12-23T22:09:23.008Z,8.74
2023-12-23T22:11:57.349Z,8.70
2023-12-23T22:14:26.481Z,8.77
2023-12-23T22:17:37.711Z,8.78
2023-12-23T22:20:07.909Z,8.87
2023-12-23T22:22:35.874Z,9.02
2023-12-23T22:25:14.860Z,9.10
2023-12-23T22:27:42.702Z,9.15
2023-12-23T22:30:12.824Z,9.18
2023-12-23T22:32:40.935Z,9.20
2023-12-23T22:35:12.296Z,9.28
2023-12-23T22:37:42.256Z,9.32
2023-12-23T22:40:10.521Z,9.28
2023-12-23T22:42:38.273Z,9.32
2023-12-23T22:45:06.999Z,9.32
2023-12-23T22:47:38.144Z,9.34
2023-12-23T22:50:06.406Z,9.38
2023-12-23T22:52:37.116Z,9.39
2023-12-23T22:55:05.270Z,9.43
2023-12-23T22:57:33.227Z,9.38
2023-12-23T23:00:01.627Z,9.32
2023-12-23T23:02:29.489Z,9.31
2023-12-23T23:05:02.155Z,9.38
2023-12-23T23:07:30.371Z,9.38
2023-12-23T23:10:00.793Z,9.42
2023-12-23T23:12:28.566Z,9.36
2023-12-23T23:14:56.212Z,9.39
2023-12-23T23:17:23.979Z,9.37
2023-12-23T23:19:51.870Z,9.43
2023-12-23T23:22:21.330Z,9.46
2023-12-23T23:24:49.004Z,9.39
2023-12-23T23:27:16.843Z,9.36
2023-12-23T23:29:44.538Z,9.34
2023-12-23T23:32:15.131Z,9.42
2023-12-23T23:34:47.590Z,9.40
2023-12-23T23:37:16.564Z,9.30
2023-12-23T23:39:45.777Z,9.34
2023-12-23T23:42:13.418Z,9.34
2023-12-23T23:44:41.058Z,9.26
2023-12-23T23:47:12.405Z,9.30
2023-12-23T23:50:04.927Z,9.31
2023-12-23T23:53:07.560Z,9.29
2023-12-23T23:55:37.655Z,9.30
2023-12-23T23:58:05.739Z,9.32
